Time;durP1;ratioP1;P1;durP2;ratioP2;P2;SDS_P1;SDS_P2;PMS_P1;PMS_P2;Temp;Humidity;BMP_temperature;BMP_pressure;BME280_temperature;BME280_humidity;BME280_pressure;Samples;Min_cycle;Max_cycle;Signal;HPM_P1;HPM_P2
2023/07/15 00:02:03;;;;;;;11.63;5.80;;;;;;;;;;6058034;23;20026;-58
2023/07/15 00:04:37;;;;;;;12.45;5.25;;;;;;;;;;6056866;23;20413;-58
2023/07/15 00:07:05;;;;;;;8.23;5.47;;;;;;;;;;6057606;23;20026;-58
2023/07/15 00:09:33;;;;;;;10.40;5.25;;;;;;;;;;6057075;23;20561;-58
2023/07/15 00:12:09;;;;;;;14.45;5.75;;;;;;;;;;6058742;23;20034;-58
2023/07/15 00:14:36;;;;;;;13.32;6.00;;;;;;;;;;6058423;23;20027;-58
2023/07/15 00:17:03;;;;;;;12.55;6.65;;;;;;;;;;6059084;23;20383;-55
2023/07/15 00:19:39;;;;;;;8.65;5.80;;;;;;;;;;6056673;23;20482;-55
2023/07/15 00:22:13;;;;;;;11.68;5.30;;;;;;;;;;6058248;23;20030;-59
2023/07/15 00:24:47;;;;;;;6.28;4.82;;;;;;;;;;6056295;23;20030;-59
2023/07/15 00:27:21;;;;;;;17.48;6.10;;;;;;;;;;6056566;23;20106;-59
2023/07/15 00:29:49;;;;;;;11.07;5.32;;;;;;;;;;6059472;23;20090;-59
2023/07/15 00:32:22;;;;;;;18.55;6.28;;;;;;;;;;6058911;23;20082;-59
2023/07/15 00:34:50;;;;;;;7.65;4.60;;;;;;;;;;6056171;23;20419;-59
2023/07/15 00:37:17;;;;;;;9.02;5.60;;;;;;;;;;6057954;23;20078;-58
2023/07/15 00:39:51;;;;;;;4.28;3.22;;;;;;;;;;6058130;23;20053;-59
2023/07/15 00:42:18;;;;;;;;;;;;;;;;;;6057828;23;20570;-58
2023/07/15 00:44:45;;;;;;;6.25;3.42;;;;;;;;;;6058269;23;19977;-58
2023/07/15 00:47:28;;;;;;;7.07;2.88;;;;;;;;;;6059161;23;20082;-59
2023/07/15 00:49:56;;;;;;;6.60;3.10;;;;;;;;;;6057798;23;20027;-57
2023/07/15 00:52:30;;;;;;;9.70;4.57;;;;;;;;;;6057694;23;20192;-58
2023/07/15 00:54:57;;;;;;;13.15;5.20;;;;;;;;;;6058509;23;20033;-57
2023/07/15 00:57:31;;;;;;;10.00;5.43;;;;;;;;;;6058595;23;20022;-57
2023/07/15 00:59:59;;;;;;;10.20;4.90;;;;;;;;;;6058389;23;20027;-61
2023/07/15 01:02:27;;;;;;;8.88;5.30;;;;;;;;;;6058815;23;20057;-57
2023/07/15 01:05:01;;;;;;;9.30;5.30;;;;;;;;;;6059807;23;20042;-58
2023/07/15 01:07:28;;;;;;;11.55;4.72;;;;;;;;;;6057734;23;20427;-58
2023/07/15 01:10:03;;;;;;;12.50;5.55;;;;;;;;;;6057838;23;20098;-58
2023/07/15 01:12:30;;;;;;;12.48;5.15;;;;;;;;;;6058696;23;20035;-58
2023/07/15 01:14:57;;;;;;;15.77;6.95;;;;;;;;;;6059096;23;20019;-51
2023/07/15 01:17:31;;;;;;;13.02;7.18;;;;;;;;;;6058259;23;20418;-58
2023/07/15 01:19:58;;;;;;;12.77;7.13;;;;;;;;;;6055627;23;20518;-58
2023/07/15 01:22:42;;;;;;;9.90;6.78;;;;;;;;;;6055030;23;20105;-58
2023/07/15 01:25:15;;;;;;;10.40;6.32;;;;;;;;;;6029463;23;20110;-58
2023/07/15 01:27:50;;;;;;;16.85;7.15;;;;;;;;;;6029237;23;20279;-58
2023/07/15 01:30:17;;;;;;;10.93;6.38;;;;;;;;;;6030030;23;20023;-59
2023/07/15 01:32:44;;;;;;;15.57;6.57;;;;;;;;;;6028812;23;20079;-61
2023/07/15 01:35:18;;;;;;;14.65;6.82;;;;;;;;;;6029240;23;20444;-61
2023/07/15 01:37:45;;;;;;;10.15;6.13;;;;;;;;;;6028922;23;20031;-61
2023/07/15 01:40:19;;;;;;;12.07;4.88;;;;;;;;;;6029663;23;20030;-61
2023/07/15 01:42:46;;;;;;;7.05;3.75;;;;;;;;;;6026884;23;20483;-54
2023/07/15 01:45:20;;;;;;;7.32;4.88;;;;;;;;;;6030208;23;20507;-59
2023/07/15 01:47:47;;;;;;;13.93;6.43;;;;;;;;;;6028713;23;20034;-57
2023/07/15 01:50:15;;;;;;;19.35;7.10;;;;;;;;;;6030078;23;20375;-58
2023/07/15 01:52:49;;;;;;;10.98;6.32;;;;;;;;;;6029493;23;20464;-57
2023/07/15 01:55:16;;;;;;;13.05;6.00;;;;;;;;;;6028793;23;20027;-57
2023/07/15 01:57:43;;;;;;;11.27;5.70;;;;;;;;;;6028219;23;20038;-58
2023/07/15 02:00:17;;;;;;;9.65;6.03;;;;;;;;;;6029443;23;20027;-58
2023/07/15 02:02:44;;;;;;;13.00;4.97;;;;;;;;;;6027424;23;20024;-61
2023/07/15 02:05:19;;;;;;;11.52;6.07;;;;;;;;;;6028733;23;20092;-60
2023/07/15 02:07:46;;;;;;;14.50;6.88;;;;;;;;;;6027791;23;20416;-61
2023/07/15 02:10:13;;;;;;;9.70;6.38;;;;;;;;;;6032047;23;20023;-61
2023/07/15 02:12:46;;;;;;;13.07;6.53;;;;;;;;;;6031207;23;20031;-58
2023/07/15 02:15:14;;;;;;;6.10;4.45;;;;;;;;;;6032498;23;20031;-61
2023/07/15 02:17:48;;;;;;;7.00;4.50;;;;;;;;;;6029097;23;20039;-61
2023/07/15 02:20:15;;;;;;;;;;;;;;;;;;6032149;23;20568;-61
2023/07/15 02:22:42;;;;;;;8.05;4.70;;;;;;;;;;6031951;23;20094;-61
2023/07/15 02:25:23;;;;;;;9.18;4.65;;;;;;;;;;6030446;23;20491;-61
2023/07/15 02:27:51;;;;;;;8.30;5.90;;;;;;;;;;6028710;23;20082;-61
2023/07/15 02:30:26;;;;;;;10.13;6.32;;;;;;;;;;6031566;23;20083;-62
2023/07/15 02:32:54;;;;;;;8.20;5.75;;;;;;;;;;6030024;23;20027;-61
2023/07/15 02:35:22;;;;;;;10.48;6.53;;;;;;;;;;6031938;23;20083;-61
2023/07/15 02:37:56;;;;;;;10.25;6.15;;;;;;;;;;6030382;23;20086;-61
2023/07/15 02:40:25;;;;;;;11.93;6.95;;;;;;;;;;6031308;23;20075;-59
2023/07/15 02:42:53;;;;;;;13.60;6.50;;;;;;;;;;6030229;23;20027;-61
2023/07/15 02:45:27;;;;;;;12.00;6.97;;;;;;;;;;6031083;23;20027;-61
2023/07/15 02:47:55;;;;;;;13.57;6.63;;;;;;;;;;6028999;23;20035;-61
2023/07/15 02:50:29;;;;;;;11.02;6.15;;;;;;;;;;6031977;23;20438;-61
2023/07/15 02:52:56;;;;;;;11.68;6.18;;;;;;;;;;6030144;23;20023;-61
2023/07/15 02:55:23;;;;;;;9.50;5.72;;;;;;;;;;6033038;23;20487;-61
2023/07/15 02:57:57;;;;;;;9.07;5.90;;;;;;;;;;6031334;23;20427;-52
2023/07/15 03:00:24;;;;;;;8.75;4.75;;;;;;;;;;6032470;23;20103;-50
2023/07/15 03:02:58;;;;;;;7.85;5.28;;;;;;;;;;6031553;23;20082;-56
2023/07/15 03:05:25;;;;;;;9.02;4.38;;;;;;;;;;6031531;23;20026;-55
2023/07/15 03:07:52;;;;;;;5.95;4.25;;;;;;;;;;6031314;23;20483;-59
2023/07/15 03:10:26;;;;;;;7.65;4.40;;;;;;;;;;6030515;23;20027;-61
2023/07/15 03:12:53;;;;;;;4.38;3.85;;;;;;;;;;6031039;23;20082;-53
2023/07/15 03:15:27;;;;;;;12.68;4.75;;;;;;;;;;6032199;23;20031;-50
2023/07/15 03:17:54;;;;;;;7.95;4.20;;;;;;;;;;6030662;23;20103;-55
2023/07/15 03:20:22;;;;;;;7.03;3.88;;;;;;;;;;6031059;23;20567;-52
2023/07/15 03:23:09;;;;;;;8.25;4.78;;;;;;;;;;6031794;23;20466;-56
2023/07/15 03:25:44;;;;;;;8.83;4.80;;;;;;;;;;6059013;23;20089;-55
2023/07/15 03:28:11;;;;;;;10.70;5.05;;;;;;;;;;6059627;23;20573;-53
2023/07/15 03:30:38;;;;;;;;;;;;;;;;;;6059321;23;20098;-51
2023/07/15 03:33:13;;;;;;;9.27;4.78;;;;;;;;;;6058437;23;19964;-52
2023/07/15 03:35:44;;;;;;;10.98;5.45;;;;;;;;;;6058889;23;20034;-51
2023/07/15 03:38:18;;;;;;;7.10;4.90;;;;;;;;;;6059574;23;20026;-59
2023/07/15 03:40:45;;;;;;;8.05;5.60;;;;;;;;;;6059847;23;20027;-61
2023/07/15 03:43:12;;;;;;;7.13;4.97;;;;;;;;;;6058925;23;20106;-61
2023/07/15 03:45:46;;;;;;;10.02;5.45;;;;;;;;;;6057190;23;20031;-61
2023/07/15 03:48:13;;;;;;;10.55;5.13;;;;;;;;;;6058960;23;20110;-61
2023/07/15 03:50:47;;;;;;;8.65;5.20;;;;;;;;;;6058739;23;20042;-61
2023/07/15 03:53:14;;;;;;;5.90;4.28;;;;;;;;;;6058659;23;20027;-61
2023/07/15 03:55:41;;;;;;;10.40;4.85;;;;;;;;;;6058841;23;20031;-58
2023/07/15 03:58:15;;;;;;;9.82;5.22;;;;;;;;;;6058375;23;20023;-59
2023/07/15 04:00:42;;;;;;;8.15;5.03;;;;;;;;;;6058296;23;20451;-59
2023/07/15 04:03:16;;;;;;;9.50;5.60;;;;;;;;;;6058461;23;20117;-59
2023/07/15 04:05:43;;;;;;;10.40;4.90;;;;;;;;;;6057503;23;20098;-58
2023/07/15 04:08:16;;;;;;;6.82;5.10;;;;;;;;;;6057005;23;20031;-58
2023/07/15 04:10:50;;;;;;;10.13;4.68;;;;;;;;;;6059598;23;20030;-59
2023/07/15 04:13:17;;;;;;;6.82;4.32;;;;;;;;;;6057307;23;20074;-58
2023/07/15 04:15:52;;;;;;;7.55;4.50;;;;;;;;;;6057211;23;20026;-58
2023/07/15 04:18:19;;;;;;;6.63;4.82;;;;;;;;;;6059523;23;20055;-58
2023/07/15 04:20:46;;;;;;;5.97;4.35;;;;;;;;;;6057092;23;20431;-58
2023/07/15 04:23:26;;;;;;;8.07;3.80;;;;;;;;;;6056830;23;20097;-54
2023/07/15 04:26:00;;;;;;;6.97;3.70;;;;;;;;;;6059240;23;20046;-56
2023/07/15 04:28:35;;;;;;;8.60;3.55;;;;;;;;;;6056622;23;20027;-53
2023/07/15 04:31:02;;;;;;;6.15;3.20;;;;;;;;;;6058869;23;20428;-56
2023/07/15 04:33:29;;;;;;;7.88;4.03;;;;;;;;;;6058486;23;20137;-57
2023/07/15 04:36:04;;;;;;;8.88;4.10;;;;;;;;;;6058596;23;20497;-61
2023/07/15 04:38:31;;;;;;;6.53;3.08;;;;;;;;;;6057058;23;20428;-57
2023/07/15 04:40:58;;;;;;;5.45;3.47;;;;;;;;;;6059372;23;20022;-58
2023/07/15 04:43:32;;;;;;;5.00;3.25;;;;;;;;;;6057069;23;20027;-58
2023/07/15 04:46:00;;;;;;;11.48;3.70;;;;;;;;;;6058481;23;20498;-58
2023/07/15 04:48:27;;;;;;;7.22;3.05;;;;;;;;;;6058414;23;20026;-58
2023/07/15 04:51:02;;;;;;;6.35;3.35;;;;;;;;;;6058226;23;20031;-58
2023/07/15 04:53:29;;;;;;;6.32;3.50;;;;;;;;;;6059405;23;20061;-58
2023/07/15 04:56:03;;;;;;;7.50;3.25;;;;;;;;;;6059771;23;20027;-58
2023/07/15 04:58:30;;;;;;;6.60;3.25;;;;;;;;;;6058185;23;20066;-58
2023/07/15 05:00:57;;;;;;;7.32;3.55;;;;;;;;;;6059801;23;20019;-58
2023/07/15 05:03:33;;;;;;;5.95;3.33;;;;;;;;;;6058031;23;20026;-61
2023/07/15 05:06:00;;;;;;;5.45;3.33;;;;;;;;;;6059513;23;20249;-58
2023/07/15 05:08:35;;;;;;;8.23;3.78;;;;;;;;;;6057695;23;20687;-58
2023/07/15 05:11:02;;;;;;;8.45;3.40;;;;;;;;;;6060474;23;20078;-58
2023/07/15 05:13:30;;;;;;;6.57;3.15;;;;;;;;;;6057024;23;20022;-58
2023/07/15 05:16:04;;;;;;;7.15;3.00;;;;;;;;;;6057459;23;20031;-58
2023/07/15 05:18:31;;;;;;;5.30;3.35;;;;;;;;;;6055579;23;20085;-59
2023/07/15 05:21:05;;;;;;;6.38;3.25;;;;;;;;;;6058448;23;20086;-59
2023/07/15 05:23:39;;;;;;;7.28;3.28;;;;;;;;;;6056880;23;20326;-58
2023/07/15 05:26:20;;;;;;;9.05;3.42;;;;;;;;;;6057166;23;20027;-58
2023/07/15 05:28:48;;;;;;;5.65;2.97;;;;;;;;;;6055471;23;20023;-59
2023/07/15 05:31:22;;;;;;;7.28;3.25;;;;;;;;;;6059222;23;20208;-59
2023/07/15 05:33:55;;;;;;;8.25;3.40;;;;;;;;;;6057820;23;20026;-54
2023/07/15 05:36:23;;;;;;;8.95;3.28;;;;;;;;;;6055676;23;20411;-53
2023/07/15 05:38:57;;;;;;;5.68;3.05;;;;;;;;;;6056813;23;20078;-54
2023/07/15 05:41:24;;;;;;;5.10;3.08;;;;;;;;;;6057611;23;20023;-55
2023/07/15 05:43:51;;;;;;;4.82;3.08;;;;;;;;;;6057508;23;20153;-56
2023/07/15 05:46:24;;;;;;;7.68;3.13;;;;;;;;;;6057679;23;20027;-56
2023/07/15 05:48:52;;;;;;;13.25;3.75;;;;;;;;;;6057905;23;20061;-58
2023/07/15 05:51:26;;;;;;;6.97;3.08;;;;;;;;;;6057091;23;20045;-59
2023/07/15 05:53:54;;;;;;;9.25;3.25;;;;;;;;;;6058098;23;20189;-59
2023/07/15 05:56:21;;;;;;;10.13;3.63;;;;;;;;;;6057402;23;20502;-59
2023/07/15 05:58:55;;;;;;;5.47;3.00;;;;;;;;;;6057589;23;20546;-59
2023/07/15 06:01:23;;;;;;;7.22;3.40;;;;;;;;;;6058420;23;20019;-58
2023/07/15 06:03:58;;;;;;;5.82;3.08;;;;;;;;;;6052745;23;20110;-59
2023/07/15 06:06:32;;;;;;;9.98;3.38;;;;;;;;;;6057590;23;20018;-58
2023/07/15 06:09:07;;;;;;;6.25;3.22;;;;;;;;;;6056673;23;20368;-58
2023/07/15 06:11:34;;;;;;;5.65;3.47;;;;;;;;;;6056406;23;20440;-58
2023/07/15 06:14:03;;;;;;;5.85;3.22;;;;;;;;;;6057385;23;20581;-58
2023/07/15 06:16:37;;;;;;;5.10;2.72;;;;;;;;;;6057585;23;20034;-58
2023/07/15 06:19:04;;;;;;;6.03;2.53;;;;;;;;;;6058596;23;20027;-58
2023/07/15 06:21:38;;;;;;;9.60;3.13;;;;;;;;;;6058205;23;20030;-58
2023/07/15 06:24:17;;;;;;;10.30;3.10;;;;;;;;;;6057354;23;20030;-59
2023/07/15 06:26:52;;;;;;;5.68;3.20;;;;;;;;;;6058918;23;20482;-59
2023/07/15 06:29:19;;;;;;;9.27;3.03;;;;;;;;;;6055637;23;20023;-59
2023/07/15 06:31:46;;;;;;;4.72;3.00;;;;;;;;;;6059073;23;20030;-59
2023/07/15 06:34:20;;;;;;;10.85;2.92;;;;;;;;;;6058482;23;20078;-59
2023/07/15 06:36:48;;;;;;;4.10;2.92;;;;;;;;;;6057508;23;20026;-58
2023/07/15 06:39:22;;;;;;;9.02;3.30;;;;;;;;;;6056767;23;20027;-58
2023/07/15 06:41:50;;;;;;;8.63;3.17;;;;;;;;;;6057621;23;20086;-59
2023/07/15 06:44:18;;;;;;;7.82;3.28;;;;;;;;;;6057143;23;20026;-59
2023/07/15 06:46:52;;;;;;;6.05;3.03;;;;;;;;;;6058863;23;20039;-57
2023/07/15 06:49:19;;;;;;;7.57;3.08;;;;;;;;;;6057274;23;20110;-58
2023/07/15 06:51:53;;;;;;;5.72;3.05;;;;;;;;;;6056781;23;20094;-58
2023/07/15 06:54:20;;;;;;;6.40;3.83;;;;;;;;;;6059125;23;20086;-58
2023/07/15 06:56:47;;;;;;;8.00;3.70;;;;;;;;;;6059693;23;20082;-59
2023/07/15 06:59:21;;;;;;;9.95;3.70;;;;;;;;;;6058949;23;20031;-58
2023/07/15 07:01:48;;;;;;;6.88;3.50;;;;;;;;;;6059242;23;20026;-59
2023/07/15 07:04:21;;;;;;;8.70;3.22;;;;;;;;;;6058660;23;20031;-59
2023/07/15 07:06:49;;;;;;;9.50;3.45;;;;;;;;;;6060239;23;20098;-59
2023/07/15 07:09:23;;;;;;;5.47;3.03;;;;;;;;;;6059589;23;20086;-59
2023/07/15 07:11:50;;;;;;;10.57;3.88;;;;;;;;;;6059150;23;20026;-59
2023/07/15 07:14:18;;;;;;;7.85;3.40;;;;;;;;;;6059166;23;20038;-65
2023/07/15 07:16:52;;;;;;;6.57;3.47;;;;;;;;;;6060712;23;20023;-64
2023/07/15 07:19:19;;;;;;;6.85;3.25;;;;;;;;;;6058155;23;20026;-64
2023/07/15 07:21:53;;;;;;;6.90;3.25;;;;;;;;;;6059481;23;20031;-64
2023/07/15 07:24:26;;;;;;;9.27;4.18;;;;;;;;;;6059097;23;20435;-59
2023/07/15 07:27:00;;;;;;;7.75;3.75;;;;;;;;;;6060848;23;20023;-59
2023/07/15 07:29:27;;;;;;;8.60;3.47;;;;;;;;;;6057387;23;20054;-58
2023/07/15 07:31:54;;;;;;;8.60;3.80;;;;;;;;;;6059494;23;20498;-59
2023/07/15 07:34:28;;;;;;;6.78;3.90;;;;;;;;;;6058207;23;20098;-59
2023/07/15 07:36:55;;;;;;;10.32;3.78;;;;;;;;;;6059865;23;20054;-58
2023/07/15 07:39:22;;;;;;;7.85;3.90;;;;;;;;;;6060056;23;20377;-59
2023/07/15 07:41:57;;;;;;;6.28;3.55;;;;;;;;;;6058815;23;20030;-59
2023/07/15 07:44:24;;;;;;;6.57;3.88;;;;;;;;;;6052919;23;20431;-60
2023/07/15 07:46:58;;;;;;;7.43;4.03;;;;;;;;;;6059796;23;20081;-60
2023/07/15 07:49:25;;;;;;;9.95;3.35;;;;;;;;;;6058369;23;20113;-61
2023/07/15 07:51:52;;;;;;;6.22;3.42;;;;;;;;;;6059517;23;20027;-60
2023/07/15 07:54:26;;;;;;;8.15;4.05;;;;;;;;;;6060002;23;20030;-59
2023/07/15 07:56:53;;;;;;;6.30;3.95;;;;;;;;;;6058973;23;20031;-65
2023/07/15 07:59:27;;;;;;;7.38;3.72;;;;;;;;;;6057797;23;20031;-65
2023/07/15 08:01:54;;;;;;;5.80;3.22;;;;;;;;;;6059405;23;20550;-65
2023/07/15 08:04:21;;;;;;;7.03;3.67;;;;;;;;;;6057392;23;20029;-65
2023/07/15 08:06:59;;;;;;;8.10;3.63;;;;;;;;;;6058829;23;20027;-65
2023/07/15 08:09:27;;;;;;;7.18;3.67;;;;;;;;;;6058507;23;20057;-65
2023/07/15 08:12:01;;;;;;;7.63;3.50;;;;;;;;;;6059655;23;20022;-58
2023/07/15 08:14:28;;;;;;;6.88;3.75;;;;;;;;;;6058000;23;20034;-59
2023/07/15 08:16:55;;;;;;;4.20;3.45;;;;;;;;;;6058340;23;20030;-58
2023/07/15 08:19:30;;;;;;;9.32;3.47;;;;;;;;;;6057394;23;20023;-58
2023/07/15 08:21:57;;;;;;;6.25;3.60;;;;;;;;;;6060647;23;20098;-59
2023/07/15 08:24:25;;;;;;;8.57;3.42;;;;;;;;;;6056172;23;20427;-51
2023/07/15 08:27:05;;;;;;;6.63;3.40;;;;;;;;;;6059342;23;20026;-50
2023/07/15 08:29:33;;;;;;;5.07;3.33;;;;;;;;;;6058200;23;20027;-53
2023/07/15 08:32:07;;;;;;;5.85;3.13;;;;;;;;;;6059641;23;20098;-50
2023/07/15 08:34:34;;;;;;;5.38;3.20;;;;;;;;;;6057656;23;20442;-53
2023/07/15 08:37:08;;;;;;;6.95;3.63;;;;;;;;;;6060386;23;20093;-54
2023/07/15 08:39:35;;;;;;;11.07;3.55;;;;;;;;;;6057546;23;20027;-57
2023/07/15 08:42:03;;;;;;;9.32;3.35;;;;;;;;;;6058385;23;20031;-58
2023/07/15 08:44:37;;;;;;;6.68;3.22;;;;;;;;;;6058903;23;20447;-58
2023/07/15 08:47:04;;;;;;;;;;;;;;;;;;6058761;23;20022;-58
2023/07/15 08:49:32;;;;;;;6.65;3.35;;;;;;;;;;6057766;23;19922;-59
2023/07/15 08:52:06;;;;;;;5.60;3.45;;;;;;;;;;6059236;23;20086;-56
2023/07/15 08:54:34;;;;;;;8.35;3.75;;;;;;;;;;6058482;23;20019;-57
2023/07/15 08:57:02;;;;;;;9.23;3.25;;;;;;;;;;6058916;23;20042;-57
2023/07/15 08:59:36;;;;;;;8.02;3.20;;;;;;;;;;6057217;23;19973;-57
2023/07/15 09:02:03;;;;;;;9.50;3.50;;;;;;;;;;6055656;23;20027;-57
2023/07/15 09:04:38;;;;;;;8.00;3.30;;;;;;;;;;6054414;23;20031;-57
2023/07/15 09:07:05;;;;;;;4.47;3.08;;;;;;;;;;6059783;23;20024;-57
2023/07/15 09:09:34;;;;;;;6.03;3.30;;;;;;;;;;6058371;23;20857;-51
2023/07/15 09:12:09;;;;;;;5.75;2.88;;;;;;;;;;6050870;23;20460;-49
2023/07/15 09:14:43;;;;;;;5.00;2.88;;;;;;;;;;6057920;23;20494;-49
2023/07/15 09:17:21;;;;;;;5.60;3.30;;;;;;;;;;6059442;23;20022;-48
2023/07/15 09:19:49;;;;;;;5.65;3.55;;;;;;;;;;6056678;23;20032;-59
2023/07/15 09:22:16;;;;;;;;;;;;;;;;;;6059002;23;20080;-53
2023/07/15 09:25:03;;;;;;;9.10;3.80;;;;;;;;;;6056933;23;20055;-50
2023/07/15 09:27:30;;;;;;;8.27;3.55;;;;;;;;;;6057815;23;20487;-51
2023/07/15 09:30:07;;;;;;;8.73;3.38;;;;;;;;;;6058090;23;20035;-53
2023/07/15 09:32:34;;;;;;;7.97;3.58;;;;;;;;;;6058180;23;20030;-50
2023/07/15 09:35:01;;;;;;;8.95;3.97;;;;;;;;;;6056470;23;20031;-49
2023/07/15 09:37:35;;;;;;;10.32;3.78;;;;;;;;;;6057051;23;20074;-58
2023/07/15 09:40:05;;;;;;;7.95;3.78;;;;;;;;;;6057182;23;20027;-58
2023/07/15 09:42:52;;;;;;;5.20;3.13;;;;;;;;;;6057071;23;20374;-58
2023/07/15 09:45:39;;;;;;;10.15;3.67;;;;;;;;;;6058046;23;20569;-58
2023/07/15 09:48:16;;;;;;;11.43;3.65;;;;;;;;;;6058105;23;20502;-57
2023/07/15 09:50:50;;;;;;;7.63;3.85;;;;;;;;;;6055464;23;20280;-57
2023/07/15 09:53:17;;;;;;;;;;;;;;;;;;6058977;23;20023;-58
2023/07/15 09:55:44;;;;;;;9.85;4.00;;;;;;;;;;6055443;23;20296;-57
2023/07/15 09:58:24;;;;;;;8.20;3.88;;;;;;;;;;6058002;23;20509;-57
2023/07/15 10:01:03;;;;;;;13.90;4.15;;;;;;;;;;6057336;23;20565;-58
2023/07/15 10:03:35;;;;;;;8.55;3.83;;;;;;;;;;6056874;23;20074;-58
2023/07/15 10:06:11;;;;;;;8.30;3.85;;;;;;;;;;6058192;23;20379;-58
2023/07/15 10:08:39;;;;;;;7.65;3.83;;;;;;;;;;6057033;23;20098;-57
2023/07/15 10:11:13;;;;;;;8.05;3.40;;;;;;;;;;6056715;23;20043;-58
2023/07/15 10:13:41;;;;;;;6.75;3.45;;;;;;;;;;6058087;23;20019;-58
2023/07/15 10:16:09;;;;;;;5.30;3.10;;;;;;;;;;6058912;23;20027;-57
2023/07/15 10:18:43;;;;;;;11.20;3.47;;;;;;;;;;6053054;23;20026;-49
2023/07/15 10:21:10;;;;;;;6.80;2.75;;;;;;;;;;6057724;23;20039;-52
2023/07/15 10:23:50;;;;;;;9.32;3.95;;;;;;;;;;6057812;23;20026;-52
2023/07/15 10:26:31;;;;;;;14.80;3.92;;;;;;;;;;6026604;23;20086;-49
2023/07/15 10:29:05;;;;;;;10.55;3.80;;;;;;;;;;6027658;23;20031;-50
2023/07/15 10:31:32;;;;;;;9.05;3.72;;;;;;;;;;6031356;23;20071;-50
2023/07/15 10:34:03;;;;;;;10.32;3.70;;;;;;;;;;6031553;23;20364;-52
2023/07/15 10:36:40;;;;;;;9.65;4.13;;;;;;;;;;6031404;23;20027;-52
2023/07/15 10:39:18;;;;;;;9.20;3.70;;;;;;;;;;6031016;23;20507;-51
2023/07/15 10:41:53;;;;;;;8.32;3.53;;;;;;;;;;6031370;23;20420;-51
2023/07/15 10:44:38;;;;;;;10.10;3.38;;;;;;;;;;6030985;23;20035;-53
2023/07/15 10:47:14;;;;;;;9.07;3.60;;;;;;;;;;6031611;23;20487;-59
2023/07/15 10:49:43;;;;;;;5.30;3.22;;;;;;;;;;6031524;23;20074;-59
2023/07/15 10:52:21;;;;;;;4.07;2.53;;;;;;;;;;6031326;23;20035;-59
2023/07/15 10:54:48;;;;;;;4.00;2.80;;;;;;;;;;6030057;23;20451;-59
2023/07/15 10:57:16;;;;;;;6.43;2.80;;;;;;;;;;6031467;23;20102;-59
2023/07/15 10:59:50;;;;;;;6.28;2.67;;;;;;;;;;6030087;23;20031;-59
2023/07/15 11:02:17;;;;;;;6.15;3.00;;;;;;;;;;6031975;23;20023;-59
2023/07/15 11:04:51;;;;;;;7.38;3.03;;;;;;;;;;6030105;23;20027;-58
2023/07/15 11:07:18;;;;;;;11.32;2.95;;;;;;;;;;6031387;23;20058;-58
2023/07/15 11:09:47;;;;;;;7.15;2.78;;;;;;;;;;6029815;23;20035;-58
2023/07/15 11:12:21;;;;;;;5.20;2.63;;;;;;;;;;6029503;23;20443;-61
2023/07/15 11:14:48;;;;;;;7.97;2.78;;;;;;;;;;6026463;23;20027;-58
2023/07/15 11:17:22;;;;;;;5.25;2.72;;;;;;;;;;6031431;23;20050;-58
2023/07/15 11:19:49;;;;;;;6.85;2.58;;;;;;;;;;6028293;23;20499;-58
2023/07/15 11:22:23;;;;;;;4.80;2.95;;;;;;;;;;6030893;23;20507;-58
2023/07/15 11:24:56;;;;;;;;;;;;;;;;;;6041788;23;20023;-58
2023/07/15 11:27:38;;;;;;;5.88;3.03;;;;;;;;;;6055621;23;19921;-58
2023/07/15 11:30:05;;;;;;;6.88;2.95;;;;;;;;;;6057362;23;20121;-50
2023/07/15 11:32:39;;;;;;;6.03;2.88;;;;;;;;;;6058250;23;20494;-52
2023/07/15 11:35:13;;;;;;;6.75;2.72;;;;;;;;;;6059572;23;20098;-50
2023/07/15 11:37:47;;;;;;;5.28;2.58;;;;;;;;;;6058000;23;20026;-52
2023/07/15 11:40:14;;;;;;;;;;;;;;;;;;6057313;23;20075;-55
2023/07/15 11:42:41;;;;;;;7.30;2.35;;;;;;;;;;6059113;23;19917;-50
2023/07/15 11:45:15;;;;;;;3.85;2.70;;;;;;;;;;6058726;23;20082;-57
2023/07/15 11:47:42;;;;;;;5.20;2.45;;;;;;;;;;6058321;23;20026;-57
2023/07/15 11:50:09;;;;;;;;;;;;;;;;;;6057855;23;20029;-58
2023/07/15 11:52:44;;;;;;;5.57;2.40;;;;;;;;;;6059806;23;19977;-57
2023/07/15 11:55:11;;;;;;;7.15;2.70;;;;;;;;;;6059897;23;20502;-57
2023/07/15 11:57:47;;;;;;;4.97;2.97;;;;;;;;;;6055311;23;20078;-56
2023/07/15 12:00:32;;;;;;;8.02;2.70;;;;;;;;;;6058428;23;20061;-61
2023/07/15 12:03:13;;;;;;;4.78;2.65;;;;;;;;;;6057482;23;20383;-61
2023/07/15 12:05:40;;;;;;;;;;;;;;;;;;6056902;23;20062;-60
2023/07/15 12:08:14;;;;;;;9.82;2.95;;;;;;;;;;6059100;23;20345;-61
2023/07/15 12:10:50;;;;;;;2.92;2.08;;;;;;;;;;6059138;23;20027;-61
2023/07/15 12:13:26;;;;;;;9.57;2.70;;;;;;;;;;6059560;23;20090;-61
2023/07/15 12:15:53;;;;;;;3.03;2.13;;;;;;;;;;6057030;23;20437;-61
2023/07/15 12:18:27;;;;;;;6.10;2.72;;;;;;;;;;6058422;23;20023;-61
2023/07/15 12:20:54;;;;;;;6.93;2.50;;;;;;;;;;6058002;23;20422;-61
2023/07/15 12:23:21;;;;;;;4.28;2.40;;;;;;;;;;6055886;23;20952;-61
2023/07/15 12:26:02;;;;;;;6.82;2.50;;;;;;;;;;6057723;23;20340;-60
2023/07/15 12:28:29;;;;;;;5.13;2.67;;;;;;;;;;6059870;23;20026;-57
2023/07/15 12:31:03;;;;;;;4.35;2.60;;;;;;;;;;6057605;23;20022;-56
2023/07/15 12:33:30;;;;;;;4.50;2.50;;;;;;;;;;6057748;23;20114;-56
2023/07/15 12:35:58;;;;;;;7.38;2.55;;;;;;;;;;6058475;23;20027;-57
2023/07/15 12:38:32;;;;;;;4.72;2.55;;;;;;;;;;6058666;23;20030;-57
2023/07/15 12:40:59;;;;;;;3.92;2.50;;;;;;;;;;6057834;23;20023;-56
2023/07/15 12:43:33;;;;;;;5.57;2.67;;;;;;;;;;6060098;23;20082;-57
2023/07/15 12:46:00;;;;;;;4.53;2.63;;;;;;;;;;6058534;23;20099;-58
2023/07/15 12:48:28;;;;;;;6.05;2.95;;;;;;;;;;6060190;23;20026;-57
2023/07/15 12:51:02;;;;;;;4.65;2.80;;;;;;;;;;6058711;23;20423;-55
2023/07/15 12:53:29;;;;;;;4.68;2.33;;;;;;;;;;6059055;23;20027;-57
2023/07/15 12:55:56;;;;;;;6.10;2.67;;;;;;;;;;6059618;23;20177;-57
2023/07/15 12:58:30;;;;;;;15.32;3.45;;;;;;;;;;6056798;23;20026;-58
2023/07/15 13:00:58;;;;;;;3.95;2.60;;;;;;;;;;6058562;23;20031;-58
2023/07/15 13:03:25;;;;;;;;;;;;;;;;;;6059585;23;20030;-58
2023/07/15 13:05:59;;;;;;;7.00;2.40;;;;;;;;;;6058357;23;19926;-57
2023/07/15 13:08:26;;;;;;;5.53;2.58;;;;;;;;;;6057682;23;20027;-58
2023/07/15 13:11:00;;;;;;;6.93;2.75;;;;;;;;;;6056394;23;20078;-58
2023/07/15 13:13:27;;;;;;;3.45;2.65;;;;;;;;;;6058513;23;20053;-58
2023/07/15 13:15:54;;;;;;;4.45;2.42;;;;;;;;;;6057218;23;20060;-58
2023/07/15 13:18:28;;;;;;;8.25;2.67;;;;;;;;;;6057964;23;20483;-58
2023/07/15 13:20:55;;;;;;;4.70;2.95;;;;;;;;;;6057959;23;20031;-59
2023/07/15 13:23:22;;;;;;;6.28;2.90;;;;;;;;;;6058176;23;20023;-58
2023/07/15 13:26:11;;;;;;;6.53;2.85;;;;;;;;;;6057321;23;20498;-58
2023/07/15 13:28:45;;;;;;;10.55;2.85;;;;;;;;;;6058883;23;20026;-57
2023/07/15 13:31:19;;;;;;;8.27;2.50;;;;;;;;;;6057705;23;20037;-58
2023/07/15 13:33:48;;;;;;;;;;;;;;;;;;6057340;23;20030;-57
2023/07/15 13:36:15;;;;;;;5.30;2.83;;;;;;;;;;6057668;23;20262;-53
2023/07/15 13:38:49;;;;;;;3.78;2.60;;;;;;;;;;6056374;23;20026;-61
2023/07/15 13:41:21;;;;;;;4.55;2.53;;;;;;;;;;6053975;23;20026;-61
2023/07/15 13:43:55;;;;;;;7.90;2.80;;;;;;;;;;6057303;23;20018;-61
2023/07/15 13:46:22;;;;;;;5.68;3.20;;;;;;;;;;6055563;23;20109;-61
2023/07/15 13:48:49;;;;;;;4.20;2.75;;;;;;;;;;6058236;23;20093;-61
2023/07/15 13:51:24;;;;;;;3.97;2.50;;;;;;;;;;6058272;23;20557;-61
2023/07/15 13:53:51;;;;;;;10.63;3.35;;;;;;;;;;6059950;23;20026;-52
2023/07/15 13:56:25;;;;;;;7.03;3.10;;;;;;;;;;6057382;23;20763;-51
2023/07/15 13:58:52;;;;;;;4.95;2.80;;;;;;;;;;6058760;23;20082;-53
2023/07/15 14:01:19;;;;;;;4.25;2.92;;;;;;;;;;6056633;23;20521;-51
2023/07/15 14:03:53;;;;;;;5.57;2.63;;;;;;;;;;6055765;23;20019;-60
2023/07/15 14:06:20;;;;;;;5.03;2.70;;;;;;;;;;6058708;23;20155;-58
2023/07/15 14:08:54;;;;;;;7.22;2.83;;;;;;;;;;6056604;23;20300;-58
2023/07/15 14:11:21;;;;;;;6.30;2.78;;;;;;;;;;6055394;23;20086;-58
2023/07/15 14:13:48;;;;;;;5.03;2.45;;;;;;;;;;6057260;23;20495;-58
2023/07/15 14:16:22;;;;;;;5.30;2.60;;;;;;;;;;6054220;23;20027;-57
2023/07/15 14:18:49;;;;;;;5.50;2.80;;;;;;;;;;6055753;23;20390;-58
2023/07/15 14:21:17;;;;;;;;;;;;;;;;;;6059215;23;20023;-64
2023/07/15 14:23:51;;;;;;;6.22;2.72;;;;;;;;;;6056002;23;19921;-64
2023/07/15 14:26:24;;;;;;;5.25;2.47;;;;;;;;;;6056432;23;20550;-64
2023/07/15 14:28:58;;;;;;;5.78;2.80;;;;;;;;;;6057352;23;20479;-64
2023/07/15 14:31:25;;;;;;;6.55;2.95;;;;;;;;;;6058466;23;20058;-49
2023/07/15 14:33:57;;;;;;;;;;;;;;;;;;6057637;23;20018;-58
2023/07/15 14:36:31;;;;;;;5.10;2.65;;;;;;;;;;6056569;23;19921;-58
2023/07/15 14:38:58;;;;;;;8.85;3.20;;;;;;;;;;6058486;23;20419;-56
2023/07/15 14:41:32;;;;;;;6.25;2.40;;;;;;;;;;6056491;23;20103;-58
2023/07/15 14:43:59;;;;;;;8.57;3.40;;;;;;;;;;6057742;23;20086;-58
2023/07/15 14:46:26;;;;;;;5.53;2.75;;;;;;;;;;6056765;23;20494;-57
2023/07/15 14:49:06;;;;;;;6.43;2.70;;;;;;;;;;6059135;23;20030;-58
2023/07/15 14:51:34;;;;;;;5.40;2.90;;;;;;;;;;6058108;23;20035;-58
2023/07/15 14:54:08;;;;;;;5.82;2.90;;;;;;;;;;6058401;23;20395;-57
2023/07/15 14:56:35;;;;;;;;;;;;;;;;;;6057914;23;20026;-58
2023/07/15 14:59:02;;;;;;;7.75;3.45;;;;;;;;;;6057891;23;19993;-57
2023/07/15 15:01:37;;;;;;;8.70;2.83;;;;;;;;;;6057438;23;20058;-57
2023/07/15 15:04:04;;;;;;;7.53;3.08;;;;;;;;;;6059480;23;20185;-64
2023/07/15 15:06:32;;;;;;;4.60;2.60;;;;;;;;;;6056578;23;20082;-65
2023/07/15 15:09:06;;;;;;;8.77;3.03;;;;;;;;;;6058814;23;20027;-64